createdAt,value
2023-03-13T00:00:04.995Z,373
2023-03-13T00:02:12.290Z,373
2023-03-13T00:04:17.633Z,369
2023-03-13T00:06:23.114Z,372
2023-03-13T00:08:28.318Z,372
2023-03-13T00:10:33.964Z,372
2023-03-13T00:12:39.452Z,372
2023-03-13T00:14:44.762Z,373
2023-03-13T00:16:50.570Z,373
2023-03-13T00:18:56.077Z,372
2023-03-13T00:21:01.400Z,372
2023-03-13T00:23:07.691Z,372
2023-03-13T00:25:13.224Z,372
2023-03-13T00:27:18.996Z,372
2023-03-13T00:29:24.381Z,373
2023-03-13T00:31:30.592Z,367
2023-03-13T00:33:35.894Z,373
2023-03-13T00:35:41.427Z,373
2023-03-13T00:37:46.947Z,364
2023-03-13T00:39:52.134Z,366
2023-03-13T00:41:58.177Z,366
2023-03-13T00:44:04.011Z,366
2023-03-13T00:46:09.795Z,366
2023-03-13T00:48:15.439Z,373
2023-03-13T00:50:20.923Z,373
2023-03-13T00:52:26.140Z,373
2023-03-13T00:54:31.947Z,373
2023-03-13T00:56:38.095Z,373
2023-03-13T00:58:43.635Z,373
2023-03-13T01:00:49.151Z,373
2023-03-13T01:02:55.543Z,373
2023-03-13T01:05:02.734Z,373
2023-03-13T01:07:08.098Z,373
2023-03-13T01:09:13.940Z,373
2023-03-13T01:11:20.763Z,373
2023-03-13T01:13:25.933Z,373
2023-03-13T01:15:31.445Z,373
2023-03-13T01:17:37.054Z,373
2023-03-13T01:19:44.642Z,373
2023-03-13T01:21:50.849Z,373
2023-03-13T01:23:56.062Z,373
2023-03-13T01:26:01.538Z,373
2023-03-13T01:28:07.333Z,373
2023-03-13T01:30:12.675Z,373
2023-03-13T01:32:18.564Z,373
2023-03-13T01:34:23.903Z,373
2023-03-13T01:36:29.512Z,373
2023-03-13T01:38:34.924Z,373
2023-03-13T01:40:40.552Z,373
2023-03-13T01:42:46.016Z,373
2023-03-13T01:44:51.313Z,373
2023-03-13T01:46:56.938Z,373
2023-03-13T01:49:02.547Z,373
2023-03-13T01:51:07.758Z,373
2023-03-13T01:53:13.151Z,373
2023-03-13T01:55:19.777Z,373
2023-03-13T01:57:25.014Z,373
2023-03-13T01:59:30.587Z,373
2023-03-13T02:01:37.490Z,373
2023-03-13T02:03:44.015Z,373
2023-03-13T02:05:49.473Z,373
2023-03-13T02:07:55.216Z,373
2023-03-13T02:10:00.710Z,373
2023-03-13T02:12:06.509Z,373
2023-03-13T02:14:12.085Z,373
2023-03-13T02:16:17.857Z,373
2023-03-13T02:18:23.687Z,373
2023-03-13T02:20:28.889Z,373
2023-03-13T02:22:35.401Z,373
2023-03-13T02:24:40.873Z,373
2023-03-13T02:26:47.230Z,373
2023-03-13T02:28:52.533Z,373
2023-03-13T02:30:58.139Z,373
2023-03-13T02:33:04.206Z,373
2023-03-13T02:35:09.409Z,374
2023-03-13T02:37:15.808Z,373
2023-03-13T02:39:21.112Z,373
2023-03-13T02:41:26.222Z,373
2023-03-13T02:43:31.554Z,373
2023-03-13T02:45:36.733Z,373
2023-03-13T02:47:42.320Z,373
2023-03-13T02:49:47.602Z,373
2023-03-13T02:51:52.973Z,373
2023-03-13T02:53:58.501Z,373
2023-03-13T02:56:03.876Z,373
2023-03-13T02:58:09.328Z,373
2023-03-13T03:00:14.520Z,368
2023-03-13T03:02:20.995Z,367
2023-03-13T03:04:26.498Z,368
2023-03-13T03:06:31.714Z,368
2023-03-13T03:08:37.095Z,368
2023-03-13T03:10:44.021Z,368
2023-03-13T03:12:49.407Z,368
2023-03-13T03:14:54.589Z,368
2023-03-13T03:17:00.207Z,369
2023-03-13T03:19:05.739Z,368
2023-03-13T03:21:11.025Z,368
2023-03-13T03:23:16.355Z,368
2023-03-13T03:25:21.921Z,368
2023-03-13T03:27:27.715Z,369
2023-03-13T03:29:34.189Z,369
2023-03-13T03:31:39.800Z,369
2023-03-13T03:33:45.358Z,369
2023-03-13T03:35:50.799Z,368
2023-03-13T03:37:56.178Z,369
2023-03-13T03:40:01.548Z,369
2023-03-13T03:42:07.069Z,369
2023-03-13T03:44:12.356Z,369
2023-03-13T03:46:18.444Z,369
2023-03-13T03:48:24.158Z,369
2023-03-13T03:50:30.721Z,370
2023-03-13T03:52:36.288Z,370
2023-03-13T03:54:41.903Z,372
2023-03-13T03:56:47.207Z,372
2023-03-13T03:58:52.811Z,370
2023-03-13T04:00:59.291Z,369
2023-03-13T04:03:04.943Z,373
2023-03-13T04:05:10.477Z,370
2023-03-13T04:07:16.081Z,372
2023-03-13T04:09:21.520Z,373
2023-03-13T04:11:29.828Z,373
2023-03-13T04:13:35.077Z,373
2023-03-13T04:15:40.467Z,373
2023-03-13T04:17:46.340Z,373
2023-03-13T04:19:52.048Z,373
2023-03-13T04:21:57.609Z,373
2023-03-13T04:24:02.934Z,373
2023-03-13T04:26:08.312Z,373
2023-03-13T04:28:13.950Z,373
2023-03-13T04:30:21.269Z,373
2023-03-13T04:32:28.198Z,373
2023-03-13T04:34:33.805Z,373
2023-03-13T04:36:39.492Z,373
2023-03-13T04:39:00.706Z,372
2023-03-13T04:41:05.956Z,373
2023-03-13T04:43:12.406Z,373
2023-03-13T04:45:17.664Z,373
2023-03-13T04:47:23.359Z,373
2023-03-13T04:49:29.094Z,373
2023-03-13T04:51:34.368Z,373
2023-03-13T04:53:39.829Z,373
2023-03-13T04:55:45.224Z,373
2023-03-13T04:57:50.834Z,373
2023-03-13T04:59:56.710Z,373
2023-03-13T05:02:02.164Z,373
2023-03-13T05:04:07.761Z,373
2023-03-13T05:06:13.081Z,373
2023-03-13T05:08:19.053Z,373
2023-03-13T05:10:24.476Z,373
2023-03-13T05:12:29.768Z,373
2023-03-13T05:14:35.333Z,373
2023-03-13T05:16:40.688Z,373
2023-03-13T05:18:45.772Z,373
2023-03-13T05:20:51.259Z,373
2023-03-13T05:22:56.723Z,373
2023-03-13T05:25:02.161Z,373
2023-03-13T05:27:07.371Z,373
2023-03-13T05:29:12.923Z,373
2023-03-13T05:31:18.769Z,373
2023-03-13T05:33:24.501Z,373
2023-03-13T05:35:30.045Z,373
2023-03-13T05:37:35.434Z,373
2023-03-13T05:39:43.104Z,373
2023-03-13T05:41:51.249Z,373
2023-03-13T05:43:56.870Z,373
2023-03-13T05:46:02.483Z,373
2023-03-13T05:48:10.010Z,373
2023-03-13T05:50:15.832Z,373
2023-03-13T05:52:22.736Z,373
2023-03-13T05:54:27.891Z,373
2023-03-13T05:56:33.233Z,373
2023-03-13T05:58:39.833Z,373
2023-03-13T06:00:45.209Z,373
2023-03-13T06:02:51.376Z,373
2023-03-13T06:04:58.239Z,373
2023-03-13T06:07:04.204Z,373
2023-03-13T06:09:09.536Z,373
2023-03-13T06:11:17.302Z,373
2023-03-13T06:13:24.898Z,373
2023-03-13T06:15:30.687Z,373
2023-03-13T06:17:36.544Z,373
2023-03-13T06:19:41.789Z,373
2023-03-13T06:21:47.675Z,373
2023-03-13T06:23:53.401Z,373
2023-03-13T06:25:59.508Z,373
2023-03-13T06:28:04.884Z,373
2023-03-13T06:30:10.660Z,373
2023-03-13T06:32:16.420Z,373
2023-03-13T06:34:22.217Z,373
2023-03-13T06:36:28.809Z,373
2023-03-13T06:38:34.765Z,373
2023-03-13T06:40:40.546Z,373
2023-03-13T06:42:46.575Z,373
2023-03-13T06:44:53.400Z,373
2023-03-13T06:46:58.942Z,373
2023-03-13T06:49:04.336Z,373
2023-03-13T06:51:10.119Z,373
2023-03-13T06:53:15.478Z,373
2023-03-13T06:55:21.110Z,373
2023-03-13T06:57:26.678Z,373
2023-03-13T06:59:32.708Z,373
2023-03-13T07:01:38.058Z,373
2023-03-13T07:03:43.662Z,373
2023-03-13T07:05:49.188Z,373
2023-03-13T07:07:56.485Z,373
2023-03-13T07:10:03.134Z,373
2023-03-13T07:12:08.892Z,373
2023-03-13T07:14:19.745Z,373
2023-03-13T07:16:25.497Z,373
2023-03-13T07:18:31.212Z,373
2023-03-13T07:20:38.067Z,373
2023-03-13T07:22:44.761Z,373
2023-03-13T07:24:50.516Z,373
2023-03-13T07:27:09.725Z,373
2023-03-13T07:29:15.383Z,373
2023-03-13T07:31:23.814Z,373
2023-03-13T07:33:30.208Z,373
2023-03-13T07:35:35.754Z,373
2023-03-13T07:37:41.124Z,373
2023-03-13T07:39:47.542Z,373
2023-03-13T07:41:52.913Z,373
2023-03-13T07:43:58.997Z,373
2023-03-13T07:46:05.027Z,373
2023-03-13T07:48:11.475Z,373
2023-03-13T07:50:17.238Z,373
2023-03-13T07:52:23.186Z,373
2023-03-13T07:54:28.530Z,373
2023-03-13T07:56:33.910Z,373
2023-03-13T07:58:39.716Z,373
2023-03-13T08:00:45.399Z,373
2023-03-13T08:02:50.968Z,373
2023-03-13T08:05:00.302Z,373
2023-03-13T08:07:06.715Z,373
2023-03-13T08:09:12.591Z,373
2023-03-13T08:11:18.840Z,373
2023-03-13T08:13:24.197Z,373
2023-03-13T08:15:29.752Z,373
2023-03-13T08:17:36.359Z,373
2023-03-13T08:19:42.330Z,373
2023-03-13T08:21:48.869Z,373
2023-03-13T08:23:54.171Z,373
2023-03-13T08:25:59.733Z,373
2023-03-13T08:28:06.235Z,373
2023-03-13T08:30:11.969Z,373
2023-03-13T08:32:17.827Z,373
2023-03-13T08:34:23.369Z,373
2023-03-13T08:36:29.303Z,373
2023-03-13T08:38:35.047Z,373
2023-03-13T08:40:40.855Z,373
2023-03-13T08:42:46.792Z,373
2023-03-13T08:44:52.517Z,373
2023-03-13T08:46:58.095Z,374
2023-03-13T08:49:04.612Z,373
2023-03-13T08:51:10.464Z,373
2023-03-13T08:53:15.795Z,373
2023-03-13T08:55:21.877Z,373
2023-03-13T08:57:30.274Z,373
2023-03-13T08:59:36.765Z,373
2023-03-13T09:01:44.129Z,373
2023-03-13T09:03:50.996Z,373
2023-03-13T09:05:59.151Z,373
2023-03-13T09:08:05.658Z,373
2023-03-13T09:10:11.081Z,373
2023-03-13T09:12:33.287Z,374
2023-03-13T09:14:39.363Z,373
2023-03-13T09:16:45.357Z,374
2023-03-13T09:18:50.890Z,374
2023-03-13T09:20:56.619Z,374
2023-03-13T09:23:02.637Z,373
2023-03-13T09:25:08.073Z,374
2023-03-13T09:27:13.518Z,374
2023-03-13T09:29:18.978Z,374
2023-03-13T09:31:25.554Z,374
2023-03-13T09:33:32.231Z,374
2023-03-13T09:35:37.834Z,374
2023-03-13T09:37:43.323Z,374
2023-03-13T09:39:48.745Z,374
2023-03-13T09:41:54.036Z,374
2023-03-13T09:44:00.292Z,374
2023-03-13T09:46:06.745Z,374
2023-03-13T09:48:12.137Z,374
2023-03-13T09:50:17.974Z,373
2023-03-13T09:52:23.362Z,374
2023-03-13T09:54:29.275Z,374
2023-03-13T09:56:35.075Z,374
2023-03-13T09:58:40.651Z,374
2023-03-13T10:00:49.119Z,374
2023-03-13T10:02:54.895Z,374
2023-03-13T10:05:00.497Z,374
2023-03-13T10:07:06.290Z,373
2023-03-13T10:09:11.984Z,374
2023-03-13T10:11:17.895Z,374
2023-03-13T10:13:23.459Z,374
2023-03-13T10:15:28.959Z,374
2023-03-13T10:17:34.295Z,373
2023-03-13T10:19:39.751Z,374
2023-03-13T10:21:45.185Z,374
2023-03-13T10:23:50.900Z,374
2023-03-13T10:25:56.485Z,374
2023-03-13T10:28:02.236Z,374
2023-03-13T10:30:07.518Z,374
2023-03-13T10:32:13.000Z,374
2023-03-13T10:34:18.627Z,374
2023-03-13T10:36:24.006Z,374
2023-03-13T10:38:30.200Z,373
2023-03-13T10:40:36.299Z,374
2023-03-13T10:42:42.108Z,374
2023-03-13T10:44:47.624Z,374
2023-03-13T10:46:54.510Z,374
2023-03-13T10:49:00.099Z,374
2023-03-13T10:51:05.973Z,374
2023-03-13T10:53:11.908Z,374
2023-03-13T10:55:17.571Z,374
2023-03-13T10:57:23.133Z,374
2023-03-13T10:59:28.692Z,374
2023-03-13T11:01:34.281Z,373
2023-03-13T11:03:40.213Z,373
2023-03-13T11:05:45.643Z,373
2023-03-13T11:07:54.326Z,373
2023-03-13T11:09:59.733Z,373
2023-03-13T11:12:05.429Z,373
2023-03-13T11:14:10.769Z,373
2023-03-13T11:16:16.574Z,374
2023-03-13T11:18:22.826Z,374
2023-03-13T11:20:28.639Z,374
2023-03-13T11:22:34.369Z,374
2023-03-13T11:24:39.757Z,374
2023-03-13T11:27:06.374Z,374
2023-03-13T11:29:12.025Z,374
2023-03-13T11:31:18.000Z,374
2023-03-13T11:33:23.707Z,374
2023-03-13T11:35:29.336Z,374
2023-03-13T11:37:34.836Z,373
2023-03-13T11:39:40.443Z,374
2023-03-13T11:41:46.707Z,374
2023-03-13T11:43:52.627Z,374
2023-03-13T11:45:59.082Z,374
2023-03-13T11:48:04.965Z,374
2023-03-13T11:50:10.590Z,374
2023-03-13T11:52:16.388Z,374
2023-03-13T11:54:22.128Z,374
2023-03-13T11:56:27.861Z,373
2023-03-13T11:58:33.262Z,374
2023-03-13T12:00:39.016Z,374
2023-03-13T12:02:45.128Z,374
2023-03-13T12:04:51.117Z,374
2023-03-13T12:06:57.075Z,374
2023-03-13T12:09:02.356Z,374
2023-03-13T12:11:07.996Z,374
2023-03-13T12:13:13.751Z,374
2023-03-13T12:15:21.538Z,374
2023-03-13T12:17:27.508Z,374
2023-03-13T12:19:33.110Z,374
2023-03-13T12:21:39.038Z,374
2023-03-13T12:23:44.705Z,374
2023-03-13T12:25:50.793Z,374
2023-03-13T12:27:56.424Z,374
2023-03-13T12:30:02.358Z,374
2023-03-13T12:32:07.929Z,374
2023-03-13T12:34:13.425Z,374
2023-03-13T12:36:19.426Z,374
2023-03-13T12:38:24.875Z,374
2023-03-13T12:40:31.117Z,374
2023-03-13T12:42:36.659Z,374
2023-03-13T12:44:42.050Z,374
2023-03-13T12:46:49.144Z,374
2023-03-13T12:48:54.923Z,374
2023-03-13T12:51:00.356Z,374
2023-03-13T12:53:05.917Z,374
2023-03-13T12:55:11.843Z,374
2023-03-13T12:57:17.548Z,374
2023-03-13T12:59:23.160Z,374
2023-03-13T13:01:29.286Z,374
2023-03-13T13:03:35.018Z,374
2023-03-13T13:05:40.465Z,374
2023-03-13T13:07:45.857Z,374
2023-03-13T13:09:51.516Z,374
2023-03-13T13:11:56.917Z,374
2023-03-13T13:14:02.890Z,374
2023-03-13T13:16:09.033Z,374
2023-03-13T13:18:14.702Z,374
2023-03-13T13:20:20.117Z,374
2023-03-13T13:22:25.706Z,374
2023-03-13T13:24:31.068Z,374
2023-03-13T13:26:36.774Z,374
2023-03-13T13:28:42.113Z,374
2023-03-13T13:30:47.690Z,374
2023-03-13T13:32:53.606Z,374
2023-03-13T13:34:58.968Z,374
2023-03-13T13:37:04.310Z,374
2023-03-13T13:39:10.328Z,374
2023-03-13T13:41:15.735Z,374
2023-03-13T13:43:23.965Z,374
2023-03-13T13:45:29.404Z,374
2023-03-13T13:47:36.270Z,374
2023-03-13T13:49:42.446Z,374
2023-03-13T13:51:48.372Z,374
2023-03-13T13:53:53.906Z,374
2023-03-13T13:55:59.220Z,374
2023-03-13T13:58:04.813Z,374
2023-03-13T14:00:10.379Z,374
2023-03-13T14:02:16.256Z,374
2023-03-13T14:04:22.393Z,374
2023-03-13T14:06:28.599Z,374
2023-03-13T14:08:35.462Z,374
2023-03-13T14:10:41.871Z,374
2023-03-13T14:12:48.081Z,374
2023-03-13T14:14:54.197Z,374
2023-03-13T14:16:59.839Z,374
2023-03-13T14:19:06.038Z,374
2023-03-13T14:21:12.220Z,374
2023-03-13T14:23:17.865Z,374
2023-03-13T14:25:23.339Z,374
2023-03-13T14:27:29.409Z,374
2023-03-13T14:29:36.942Z,374
2023-03-13T14:31:43.240Z,374
2023-03-13T14:33:49.447Z,374
2023-03-13T14:35:56.140Z,374
2023-03-13T14:38:01.880Z,374
2023-03-13T14:40:09.488Z,374
2023-03-13T14:42:15.522Z,374
2023-03-13T14:44:21.648Z,374
2023-03-13T14:46:28.025Z,374
2023-03-13T14:48:34.757Z,374
2023-03-13T14:50:40.390Z,374
2023-03-13T14:52:45.612Z,374
2023-03-13T14:54:52.457Z,374
2023-03-13T14:56:58.200Z,374
2023-03-13T14:59:03.831Z,374
2023-03-13T15:01:10.543Z,374
2023-03-13T15:03:16.235Z,374
2023-03-13T15:05:22.391Z,374
2023-03-13T15:07:28.358Z,374
2023-03-13T15:09:36.764Z,374
2023-03-13T15:11:43.078Z,374
2023-03-13T15:13:49.724Z,374
2023-03-13T15:15:55.920Z,374
2023-03-13T15:18:02.850Z,374
2023-03-13T15:20:12.150Z,374
2023-03-13T15:22:18.999Z,374
2023-03-13T15:24:26.747Z,374
2023-03-13T15:26:33.658Z,374
2023-03-13T15:28:39.509Z,374
2023-03-13T15:30:45.151Z,374
2023-03-13T15:32:53.014Z,374
2023-03-13T15:34:59.311Z,374
2023-03-13T15:37:06.263Z,374
2023-03-13T15:39:12.412Z,374
2023-03-13T15:41:18.667Z,374
2023-03-13T15:43:25.183Z,374
2023-03-13T15:45:32.848Z,374
2023-03-13T15:47:40.106Z,374
2023-03-13T15:49:46.750Z,374
2023-03-13T15:51:53.127Z,374
2023-03-13T15:54:02.554Z,374
2023-03-13T15:56:08.605Z,374
2023-03-13T15:58:15.057Z,374
2023-03-13T16:00:21.048Z,374
2023-03-13T16:02:27.827Z,374
2023-03-13T16:04:34.455Z,374
2023-03-13T16:06:41.139Z,374
2023-03-13T16:08:47.573Z,374
2023-03-13T16:10:53.474Z,374
2023-03-13T16:12:59.767Z,374
2023-03-13T16:15:05.693Z,374
2023-03-13T16:17:14.016Z,374
2023-03-13T16:19:20.810Z,374
2023-03-13T16:21:27.067Z,374
2023-03-13T16:23:33.668Z,374
2023-03-13T16:25:40.888Z,373
2023-03-13T16:27:48.977Z,374
2023-03-13T16:29:56.171Z,374
2023-03-13T16:32:05.663Z,374
2023-03-13T16:34:11.656Z,374
2023-03-13T16:36:18.493Z,374
2023-03-13T16:38:25.315Z,373
2023-03-13T16:40:31.879Z,374
2023-03-13T16:42:38.602Z,374
2023-03-13T16:44:44.993Z,373
2023-03-13T16:47:08.188Z,374
2023-03-13T16:49:15.357Z,374
2023-03-13T16:51:23.550Z,373
2023-03-13T16:53:31.079Z,374
2023-03-13T16:55:38.493Z,374
2023-03-13T16:57:47.222Z,374
2023-03-13T16:59:55.468Z,374
2023-03-13T17:02:03.358Z,374
2023-03-13T17:04:10.441Z,374
2023-03-13T17:06:16.271Z,374
2023-03-13T17:08:22.068Z,374
2023-03-13T17:10:28.477Z,374
2023-03-13T17:12:38.386Z,373
2023-03-13T17:14:45.852Z,374
2023-03-13T17:16:53.895Z,374
2023-03-13T17:19:05.086Z,373
2023-03-13T17:21:12.870Z,374
2023-03-13T17:23:20.192Z,374
2023-03-13T17:25:27.870Z,374
2023-03-13T17:27:33.763Z,373
2023-03-13T17:29:40.152Z,374
2023-03-13T17:31:48.632Z,374
2023-03-13T17:33:55.743Z,373
2023-03-13T17:36:03.888Z,373
2023-03-13T17:38:11.765Z,373
2023-03-13T17:40:19.884Z,374
2023-03-13T17:42:29.799Z,373
2023-03-13T17:44:37.503Z,373
2023-03-13T17:46:43.982Z,374
2023-03-13T17:48:51.800Z,373
2023-03-13T17:50:58.589Z,373
2023-03-13T17:53:05.837Z,373
2023-03-13T17:55:11.714Z,374
2023-03-13T17:57:20.073Z,374
2023-03-13T17:59:31.319Z,373
2023-03-13T18:01:46.084Z,373
2023-03-13T18:03:53.352Z,373
2023-03-13T18:06:02.742Z,373
2023-03-13T18:08:12.308Z,373
2023-03-13T18:10:23.838Z,373
2023-03-13T18:12:32.953Z,373
2023-03-13T18:14:41.155Z,373
2023-03-13T18:16:48.904Z,373
2023-03-13T18:18:58.874Z,373
2023-03-13T18:21:08.805Z,373
2023-03-13T18:23:20.146Z,373
2023-03-13T18:25:28.540Z,373
2023-03-13T18:27:37.286Z,373
2023-03-13T18:29:46.931Z,373
2023-03-13T18:31:56.375Z,373
2023-03-13T18:34:09.894Z,373
2023-03-13T18:36:17.423Z,373
2023-03-13T18:38:26.958Z,373
2023-03-13T18:40:37.342Z,373
2023-03-13T18:42:49.520Z,373
2023-03-13T18:45:01.028Z,373
2023-03-13T18:47:11.804Z,373
2023-03-13T18:49:20.625Z,373
2023-03-13T18:51:29.393Z,373
2023-03-13T18:53:39.299Z,373
2023-03-13T18:55:46.850Z,373
2023-03-13T18:57:58.444Z,373
2023-03-13T19:00:08.416Z,373
2023-03-13T19:02:18.897Z,373
2023-03-13T19:04:28.031Z,373
2023-03-13T19:06:39.160Z,373
2023-03-13T19:08:48.540Z,373
2023-03-13T19:11:02.901Z,373
2023-03-13T19:13:20.371Z,373
2023-03-13T19:15:29.689Z,373
2023-03-13T19:17:39.706Z,373
2023-03-13T19:19:48.887Z,373
2023-03-13T19:22:01.850Z,373
2023-03-13T19:24:15.118Z,374
2023-03-13T19:26:27.258Z,373
2023-03-13T19:28:35.225Z,373
2023-03-13T19:30:46.299Z,373
2023-03-13T19:33:02.354Z,373
2023-03-13T19:35:14.984Z,373
2023-03-13T19:37:25.542Z,373
2023-03-13T19:39:55.183Z,373
2023-03-13T19:42:04.630Z,373
2023-03-13T19:44:14.315Z,373
2023-03-13T19:46:27.135Z,373
2023-03-13T19:48:37.566Z,373
2023-03-13T19:50:46.487Z,373
2023-03-13T19:53:02.024Z,373
2023-03-13T19:55:12.141Z,373
2023-03-13T19:57:20.666Z,373
2023-03-13T19:59:29.650Z,373
2023-03-13T20:01:39.267Z,373
2023-03-13T20:03:50.166Z,373
2023-03-13T20:06:00.790Z,373
2023-03-13T20:08:11.098Z,373
2023-03-13T20:10:23.805Z,367
2023-03-13T20:12:35.802Z,372
2023-03-13T20:14:44.224Z,372
2023-03-13T20:16:56.035Z,369
2023-03-13T20:19:06.958Z,368
2023-03-13T20:21:17.646Z,372
2023-03-13T20:23:28.746Z,369
2023-03-13T20:25:39.163Z,368
2023-03-13T20:27:50.051Z,373
2023-03-13T20:29:59.049Z,372
2023-03-13T20:32:09.600Z,372
2023-03-13T20:34:19.743Z,373
2023-03-13T20:36:28.698Z,373
2023-03-13T20:38:39.648Z,372
2023-03-13T20:40:49.791Z,372
2023-03-13T20:43:02.416Z,373
2023-03-13T20:45:14.750Z,373
2023-03-13T20:47:28.443Z,373
2023-03-13T20:49:39.768Z,372
2023-03-13T20:51:48.743Z,372
2023-03-13T20:53:59.579Z,372
2023-03-13T20:56:11.161Z,372
2023-03-13T20:58:24.286Z,372
2023-03-13T21:00:33.306Z,372
2023-03-13T21:02:44.866Z,372
2023-03-13T21:04:54.320Z,372
2023-03-13T21:07:02.793Z,372
2023-03-13T21:09:12.316Z,372
2023-03-13T21:11:19.931Z,372
2023-03-13T21:13:28.959Z,372
2023-03-13T21:15:36.437Z,373
2023-03-13T21:17:43.512Z,372
2023-03-13T21:19:51.842Z,370
2023-03-13T21:21:58.420Z,372
2023-03-13T21:24:07.709Z,373
2023-03-13T21:26:14.659Z,372
2023-03-13T21:28:21.157Z,372
2023-03-13T21:30:29.246Z,370
2023-03-13T21:32:35.819Z,372
2023-03-13T21:34:42.376Z,373
2023-03-13T21:36:48.007Z,372
2023-03-13T21:38:53.681Z,373
2023-03-13T21:41:00.205Z,372
2023-03-13T21:43:06.114Z,373
2023-03-13T21:45:12.611Z,372
2023-03-13T21:47:18.903Z,372
2023-03-13T21:49:25.550Z,370
2023-03-13T21:51:30.977Z,372
2023-03-13T21:53:37.259Z,372
2023-03-13T21:55:43.190Z,370
2023-03-13T21:57:50.560Z,370
2023-03-13T21:59:59.457Z,373
2023-03-13T22:02:05.865Z,372
2023-03-13T22:04:11.595Z,372
2023-03-13T22:06:17.649Z,372
2023-03-13T22:08:23.367Z,372
2023-03-13T22:10:28.892Z,370
2023-03-13T22:12:35.386Z,372
2023-03-13T22:14:42.071Z,372
2023-03-13T22:16:47.981Z,369
2023-03-13T22:18:53.580Z,369
2023-03-13T22:20:59.060Z,369
2023-03-13T22:23:04.452Z,369
2023-03-13T22:25:10.028Z,369
2023-03-13T22:27:18.191Z,369
2023-03-13T22:29:23.620Z,369
2023-03-13T22:31:29.291Z,368
2023-03-13T22:33:35.218Z,368
2023-03-13T22:35:41.787Z,368
2023-03-13T22:37:47.703Z,369
2023-03-13T22:39:53.409Z,369
2023-03-13T22:41:59.106Z,368
2023-03-13T22:44:04.407Z,368
2023-03-13T22:46:09.953Z,368
2023-03-13T22:48:16.638Z,368
2023-03-13T22:50:21.901Z,368
2023-03-13T22:52:27.246Z,368
2023-03-13T22:54:32.424Z,368
2023-03-13T22:56:38.728Z,367
2023-03-13T22:58:44.073Z,367
2023-03-13T23:00:50.706Z,367
2023-03-13T23:02:56.243Z,367
2023-03-13T23:05:01.760Z,367
2023-03-13T23:07:07.424Z,367
2023-03-13T23:09:12.803Z,366
2023-03-13T23:11:18.461Z,374
2023-03-13T23:13:23.884Z,366
2023-03-13T23:15:56.546Z,365
2023-03-13T23:18:03.133Z,366
2023-03-13T23:20:08.767Z,368
2023-03-13T23:22:13.976Z,368
2023-03-13T23:24:19.248Z,368
2023-03-13T23:26:24.510Z,369
2023-03-13T23:28:29.720Z,368
2023-03-13T23:30:35.049Z,368
2023-03-13T23:32:40.558Z,369
2023-03-13T23:34:48.960Z,369
2023-03-13T23:36:54.224Z,369
2023-03-13T23:38:59.427Z,369
2023-03-13T23:41:04.929Z,369
2023-03-13T23:43:11.459Z,369
2023-03-13T23:45:16.677Z,369
2023-03-13T23:47:22.090Z,369
2023-03-13T23:49:27.205Z,369
2023-03-13T23:51:32.573Z,369
2023-03-13T23:53:38.126Z,369
2023-03-13T23:55:43.354Z,369
2023-03-13T23:57:49.130Z,369
2023-03-13T23:59:55.482Z,369
